sensor_id;sensor_type;location;lat;lon;timestamp;temperature;humidity
15666;DHT22;20725;51.196;3.510;2022-12-18T00:01:03;-4.70;99.90
15666;DHT22;20725;51.196;3.510;2022-12-18T00:03:32;-4.80;99.90
15666;DHT22;20725;51.196;3.510;2022-12-18T00:05:59;-4.80;99.90
15666;DHT22;20725;51.196;3.510;2022-12-18T00:08:25;-4.80;99.90
15666;DHT22;20725;51.196;3.510;2022-12-18T00:10:53;-4.90;99.90
15666;DHT22;20725;51.196;3.510;2022-12-18T00:13:21;-4.90;99.90
15666;DHT22;20725;51.196;3.510;2022-12-18T00:15:48;-5.10;99.90
15666;DHT22;20725;51.196;3.510;2022-12-18T00:18:15;-5.20;99.90
15666;DHT22;20725;51.196;3.510;2022-12-18T00:20:42;-5.20;99.90
15666;DHT22;20725;51.196;3.510;2022-12-18T00:23:08;-5.30;99.90
15666;DHT22;20725;51.196;3.510;2022-12-18T00:25:36;-5.30;99.90
15666;DHT22;20725;51.196;3.510;2022-12-18T00:28:03;-5.50;99.90
15666;DHT22;20725;51.196;3.510;2022-12-18T00:30:32;-5.50;99.90
15666;DHT22;20725;51.196;3.510;2022-12-18T00:32:59;-5.60;99.90
15666;DHT22;20725;51.196;3.510;2022-12-18T00:35:25;-5.70;99.90
15666;DHT22;20725;51.196;3.510;2022-12-18T00:37:52;-5.70;99.90
15666;DHT22;20725;51.196;3.510;2022-12-18T00:40:19;-5.70;99.90
15666;DHT22;20725;51.196;3.510;2022-12-18T00:42:46;-5.60;99.90
15666;DHT22;20725;51.196;3.510;2022-12-18T00:45:21;-5.70;99.90
15666;DHT22;20725;51.196;3.510;2022-12-18T00:47:49;-5.70;99.90
15666;DHT22;20725;51.196;3.510;2022-12-18T00:50:16;-5.80;99.90
15666;DHT22;20725;51.196;3.510;2022-12-18T00:52:43;-5.80;99.90
15666;DHT22;20725;51.196;3.510;2022-12-18T00:55:11;-5.90;99.90
15666;DHT22;20725;51.196;3.510;2022-12-18T00:57:38;-5.90;99.90
15666;DHT22;20725;51.196;3.510;2022-12-18T01:00:07;-5.90;99.90
15666;DHT22;20725;51.196;3.510;2022-12-18T01:02:34;-5.70;99.90
15666;DHT22;20725;51.196;3.510;2022-12-18T01:05:02;-5.70;99.90
15666;DHT22;20725;51.196;3.510;2022-12-18T01:07:29;-5.60;99.90
15666;DHT22;20725;51.196;3.510;2022-12-18T01:09:56;-5.60;99.90
15666;DHT22;20725;51.196;3.510;2022-12-18T01:12:23;-5.60;99.90
15666;DHT22;20725;51.196;3.510;2022-12-18T01:14:50;-5.50;99.90
15666;DHT22;20725;51.196;3.510;2022-12-18T01:17:17;-5.50;99.90
15666;DHT22;20725;51.196;3.510;2022-12-18T01:19:44;-5.50;99.90
15666;DHT22;20725;51.196;3.510;2022-12-18T01:22:12;-5.60;99.90
15666;DHT22;20725;51.196;3.510;2022-12-18T01:24:39;-5.60;99.90
15666;DHT22;20725;51.196;3.510;2022-12-18T01:27:06;-5.70;99.90
15666;DHT22;20725;51.196;3.510;2022-12-18T01:29:33;-5.70;99.90
15666;DHT22;20725;51.196;3.510;2022-12-18T01:31:59;-5.80;99.90
15666;DHT22;20725;51.196;3.510;2022-12-18T01:34:26;-5.80;99.90
15666;DHT22;20725;51.196;3.510;2022-12-18T01:36:53;-5.80;99.90
15666;DHT22;20725;51.196;3.510;2022-12-18T01:39:22;-5.80;99.90
15666;DHT22;20725;51.196;3.510;2022-12-18T01:41:49;-5.90;99.90
15666;DHT22;20725;51.196;3.510;2022-12-18T01:44:57;-5.80;99.90
15666;DHT22;20725;51.196;3.510;2022-12-18T01:47:26;-5.80;99.90
15666;DHT22;20725;51.196;3.510;2022-12-18T01:49:56;-5.90;99.90
15666;DHT22;20725;51.196;3.510;2022-12-18T01:52:25;-5.90;99.90
15666;DHT22;20725;51.196;3.510;2022-12-18T01:54:54;-6.00;99.90
15666;DHT22;20725;51.196;3.510;2022-12-18T01:57:23;-6.00;99.90
15666;DHT22;20725;51.196;3.510;2022-12-18T01:59:53;-6.00;99.90
15666;DHT22;20725;51.196;3.510;2022-12-18T02:02:21;-5.90;99.90
15666;DHT22;20725;51.196;3.510;2022-12-18T02:04:48;-6.00;99.90
15666;DHT22;20725;51.196;3.510;2022-12-18T02:07:21;-6.00;99.90
15666;DHT22;20725;51.196;3.510;2022-12-18T02:09:57;-6.00;99.90
15666;DHT22;20725;51.196;3.510;2022-12-18T02:12:29;-6.00;99.90
15666;DHT22;20725;51.196;3.510;2022-12-18T02:15:06;-6.10;99.90
15666;DHT22;20725;51.196;3.510;2022-12-18T02:17:39;-6.10;99.90
15666;DHT22;20725;51.196;3.510;2022-12-18T02:20:14;-6.00;99.90
15666;DHT22;20725;51.196;3.510;2022-12-18T02:22:52;-6.00;99.90
15666;DHT22;20725;51.196;3.510;2022-12-18T02:25:34;-6.00;99.90
15666;DHT22;20725;51.196;3.510;2022-12-18T02:28:11;-6.10;99.90
15666;DHT22;20725;51.196;3.510;2022-12-18T02:30:40;-6.10;99.90
15666;DHT22;20725;51.196;3.510;2022-12-18T02:33:09;-6.20;99.90
15666;DHT22;20725;51.196;3.510;2022-12-18T02:35:38;-6.20;99.90
15666;DHT22;20725;51.196;3.510;2022-12-18T02:38:06;-6.20;99.90
15666;DHT22;20725;51.196;3.510;2022-12-18T02:40:35;-6.20;99.90
15666;DHT22;20725;51.196;3.510;2022-12-18T02:43:08;-6.20;99.90
15666;DHT22;20725;51.196;3.510;2022-12-18T02:45:35;-6.20;99.90
15666;DHT22;20725;51.196;3.510;2022-12-18T02:48:02;-6.20;99.90
15666;DHT22;20725;51.196;3.510;2022-12-18T02:50:34;-6.20;99.90
15666;DHT22;20725;51.196;3.510;2022-12-18T02:53:09;-6.30;99.90
15666;DHT22;20725;51.196;3.510;2022-12-18T02:55:47;-6.30;99.90
15666;DHT22;20725;51.196;3.510;2022-12-18T02:58:23;-6.30;99.90
15666;DHT22;20725;51.196;3.510;2022-12-18T03:00:58;-6.40;99.90
15666;DHT22;20725;51.196;3.510;2022-12-18T03:03:31;-6.40;99.90
15666;DHT22;20725;51.196;3.510;2022-12-18T03:06:03;-6.50;99.90
15666;DHT22;20725;51.196;3.510;2022-12-18T03:08:35;-6.50;99.90
15666;DHT22;20725;51.196;3.510;2022-12-18T03:11:07;-6.60;99.90
15666;DHT22;20725;51.196;3.510;2022-12-18T03:13:39;-6.60;99.90
15666;DHT22;20725;51.196;3.510;2022-12-18T03:16:10;-6.70;99.90
15666;DHT22;20725;51.196;3.510;2022-12-18T03:18:41;-6.70;99.90
15666;DHT22;20725;51.196;3.510;2022-12-18T03:21:10;-6.80;99.90
15666;DHT22;20725;51.196;3.510;2022-12-18T03:23:42;-6.80;99.90
15666;DHT22;20725;51.196;3.510;2022-12-18T03:26:13;-6.70;99.90
15666;DHT22;20725;51.196;3.510;2022-12-18T03:28:47;-6.80;99.90
15666;DHT22;20725;51.196;3.510;2022-12-18T03:31:18;-6.80;99.90
15666;DHT22;20725;51.196;3.510;2022-12-18T03:33:51;-6.80;99.90
15666;DHT22;20725;51.196;3.510;2022-12-18T03:36:18;-6.70;99.90
15666;DHT22;20725;51.196;3.510;2022-12-18T03:38:45;-6.70;99.90
15666;DHT22;20725;51.196;3.510;2022-12-18T03:41:16;-6.60;99.90
15666;DHT22;20725;51.196;3.510;2022-12-18T03:43:49;-6.60;99.90
15666;DHT22;20725;51.196;3.510;2022-12-18T03:46:25;-6.50;99.90
15666;DHT22;20725;51.196;3.510;2022-12-18T03:48:58;-6.50;99.90
15666;DHT22;20725;51.196;3.510;2022-12-18T03:51:32;-6.50;99.90
15666;DHT22;20725;51.196;3.510;2022-12-18T03:54:05;-6.40;99.90
15666;DHT22;20725;51.196;3.510;2022-12-18T03:56:38;-6.40;99.90
15666;DHT22;20725;51.196;3.510;2022-12-18T03:59:10;-6.40;99.90
15666;DHT22;20725;51.196;3.510;2022-12-18T04:01:41;-6.40;99.90
15666;DHT22;20725;51.196;3.510;2022-12-18T04:04:10;-6.40;99.90
15666;DHT22;20725;51.196;3.510;2022-12-18T04:06:38;-6.50;99.90
15666;DHT22;20725;51.196;3.510;2022-12-18T04:09:06;-6.50;99.90
15666;DHT22;20725;51.196;3.510;2022-12-18T04:11:33;-6.50;99.90
15666;DHT22;20725;51.196;3.510;2022-12-18T04:14:00;-6.60;99.90
15666;DHT22;20725;51.196;3.510;2022-12-18T04:16:29;-6.60;99.90
15666;DHT22;20725;51.196;3.510;2022-12-18T04:18:56;-6.60;99.90
15666;DHT22;20725;51.196;3.510;2022-12-18T04:21:23;-6.60;99.90
15666;DHT22;20725;51.196;3.510;2022-12-18T04:23:50;-6.60;99.90
15666;DHT22;20725;51.196;3.510;2022-12-18T04:26:17;-6.60;99.90
15666;DHT22;20725;51.196;3.510;2022-12-18T04:28:44;-6.70;99.90
15666;DHT22;20725;51.196;3.510;2022-12-18T04:31:11;-6.60;99.90
15666;DHT22;20725;51.196;3.510;2022-12-18T04:33:39;-6.60;99.90
15666;DHT22;20725;51.196;3.510;2022-12-18T04:36:07;-6.60;99.90
15666;DHT22;20725;51.196;3.510;2022-12-18T04:38:33;-6.60;99.90
15666;DHT22;20725;51.196;3.510;2022-12-18T04:41:00;-6.60;99.90
15666;DHT22;20725;51.196;3.510;2022-12-18T04:43:27;-6.60;99.90
15666;DHT22;20725;51.196;3.510;2022-12-18T04:46:02;-6.60;99.90
15666;DHT22;20725;51.196;3.510;2022-12-18T04:48:28;-6.60;99.90
15666;DHT22;20725;51.196;3.510;2022-12-18T04:50:57;-6.60;99.90
15666;DHT22;20725;51.196;3.510;2022-12-18T04:53:24;-6.60;99.90
15666;DHT22;20725;51.196;3.510;2022-12-18T04:55:51;-6.60;99.90
15666;DHT22;20725;51.196;3.510;2022-12-18T04:58:17;-6.50;99.90
15666;DHT22;20725;51.196;3.510;2022-12-18T05:00:44;-6.50;99.90
15666;DHT22;20725;51.196;3.510;2022-12-18T05:03:11;-6.40;99.90
15666;DHT22;20725;51.196;3.510;2022-12-18T05:05:38;-6.30;99.90
15666;DHT22;20725;51.196;3.510;2022-12-18T05:08:06;-6.30;99.90
15666;DHT22;20725;51.196;3.510;2022-12-18T05:10:33;-6.30;99.90
15666;DHT22;20725;51.196;3.510;2022-12-18T05:13:00;-6.30;99.90
15666;DHT22;20725;51.196;3.510;2022-12-18T05:15:28;-6.30;99.90
15666;DHT22;20725;51.196;3.510;2022-12-18T05:17:55;-6.40;99.90
15666;DHT22;20725;51.196;3.510;2022-12-18T05:20:22;-6.40;99.90
15666;DHT22;20725;51.196;3.510;2022-12-18T05:22:50;-6.50;99.90
15666;DHT22;20725;51.196;3.510;2022-12-18T05:25:18;-6.50;99.90
15666;DHT22;20725;51.196;3.510;2022-12-18T05:27:46;-6.50;99.90
15666;DHT22;20725;51.196;3.510;2022-12-18T05:30:14;-6.40;99.90
15666;DHT22;20725;51.196;3.510;2022-12-18T05:32:41;-6.30;99.90
15666;DHT22;20725;51.196;3.510;2022-12-18T05:35:09;-6.30;99.90
15666;DHT22;20725;51.196;3.510;2022-12-18T05:37:36;-6.20;99.90
15666;DHT22;20725;51.196;3.510;2022-12-18T05:40:04;-6.20;99.90
15666;DHT22;20725;51.196;3.510;2022-12-18T05:42:33;-6.10;99.90
15666;DHT22;20725;51.196;3.510;2022-12-18T05:45:00;-6.10;99.90
15666;DHT22;20725;51.196;3.510;2022-12-18T05:47:28;-6.10;99.90
15666;DHT22;20725;51.196;3.510;2022-12-18T05:49:55;-6.10;99.90
15666;DHT22;20725;51.196;3.510;2022-12-18T05:52:22;-6.10;99.90
15666;DHT22;20725;51.196;3.510;2022-12-18T05:54:49;-6.10;99.90
15666;DHT22;20725;51.196;3.510;2022-12-18T05:57:16;-6.00;99.90
15666;DHT22;20725;51.196;3.510;2022-12-18T05:59:44;-6.10;99.90
15666;DHT22;20725;51.196;3.510;2022-12-18T06:02:11;-6.10;99.90
15666;DHT22;20725;51.196;3.510;2022-12-18T06:04:38;-6.10;99.90
15666;DHT22;20725;51.196;3.510;2022-12-18T06:07:05;-6.10;99.90
15666;DHT22;20725;51.196;3.510;2022-12-18T06:09:31;-6.10;99.90
15666;DHT22;20725;51.196;3.510;2022-12-18T06:11:58;-6.00;99.90
15666;DHT22;20725;51.196;3.510;2022-12-18T06:14:25;-6.00;99.90
15666;DHT22;20725;51.196;3.510;2022-12-18T06:16:54;-6.00;99.90
15666;DHT22;20725;51.196;3.510;2022-12-18T06:19:21;-6.00;99.90
15666;DHT22;20725;51.196;3.510;2022-12-18T06:21:49;-5.90;99.90
15666;DHT22;20725;51.196;3.510;2022-12-18T06:24:16;-6.00;99.90
15666;DHT22;20725;51.196;3.510;2022-12-18T06:26:43;-6.00;99.90
15666;DHT22;20725;51.196;3.510;2022-12-18T06:29:10;-6.00;99.90
15666;DHT22;20725;51.196;3.510;2022-12-18T06:31:37;-5.90;99.90
15666;DHT22;20725;51.196;3.510;2022-12-18T06:34:06;-5.80;99.90
15666;DHT22;20725;51.196;3.510;2022-12-18T06:36:32;-5.90;99.90
15666;DHT22;20725;51.196;3.510;2022-12-18T06:38:59;-5.80;99.90
15666;DHT22;20725;51.196;3.510;2022-12-18T06:41:27;-5.90;99.90
15666;DHT22;20725;51.196;3.510;2022-12-18T06:43:54;-5.90;99.90
15666;DHT22;20725;51.196;3.510;2022-12-18T06:46:21;-5.90;99.90
15666;DHT22;20725;51.196;3.510;2022-12-18T06:48:48;-5.90;99.90
15666;DHT22;20725;51.196;3.510;2022-12-18T06:51:19;-5.80;99.90
15666;DHT22;20725;51.196;3.510;2022-12-18T06:53:46;-5.80;99.90
15666;DHT22;20725;51.196;3.510;2022-12-18T06:56:13;-5.90;99.90
15666;DHT22;20725;51.196;3.510;2022-12-18T06:58:40;-5.90;99.90
15666;DHT22;20725;51.196;3.510;2022-12-18T07:01:09;-5.90;99.90
15666;DHT22;20725;51.196;3.510;2022-12-18T07:03:37;-5.90;99.90
15666;DHT22;20725;51.196;3.510;2022-12-18T07:06:04;-5.90;99.90
15666;DHT22;20725;51.196;3.510;2022-12-18T07:08:33;-5.90;99.90
15666;DHT22;20725;51.196;3.510;2022-12-18T07:11:03;-6.00;99.90
15666;DHT22;20725;51.196;3.510;2022-12-18T07:13:30;-6.00;99.90
15666;DHT22;20725;51.196;3.510;2022-12-18T07:16:03;-6.00;99.90
15666;DHT22;20725;51.196;3.510;2022-12-18T07:18:30;-6.00;99.90
15666;DHT22;20725;51.196;3.510;2022-12-18T07:21:03;-6.00;99.90
15666;DHT22;20725;51.196;3.510;2022-12-18T07:23:33;-5.90;99.90
15666;DHT22;20725;51.196;3.510;2022-12-18T07:26:02;-6.00;99.90
15666;DHT22;20725;51.196;3.510;2022-12-18T07:28:31;-5.80;99.90
15666;DHT22;20725;51.196;3.510;2022-12-18T07:31:02;-5.90;99.90
15666;DHT22;20725;51.196;3.510;2022-12-18T07:33:29;-5.80;99.90
15666;DHT22;20725;51.196;3.510;2022-12-18T07:35:58;-5.80;99.90
15666;DHT22;20725;51.196;3.510;2022-12-18T07:38:35;-5.80;99.90
15666;DHT22;20725;51.196;3.510;2022-12-18T07:41:03;-5.80;99.90
15666;DHT22;20725;51.196;3.510;2022-12-18T07:43:32;-5.70;99.90
15666;DHT22;20725;51.196;3.510;2022-12-18T07:46:00;-5.70;99.90
15666;DHT22;20725;51.196;3.510;2022-12-18T07:48:28;-5.70;99.90
15666;DHT22;20725;51.196;3.510;2022-12-18T07:50:58;-5.70;99.90
15666;DHT22;20725;51.196;3.510;2022-12-18T07:53:26;-5.70;99.90
15666;DHT22;20725;51.196;3.510;2022-12-18T07:55:57;-5.60;99.90
15666;DHT22;20725;51.196;3.510;2022-12-18T07:58:25;-5.60;99.90
15666;DHT22;20725;51.196;3.510;2022-12-18T08:01:01;-5.50;99.90
15666;DHT22;20725;51.196;3.510;2022-12-18T08:03:29;-5.40;99.90
15666;DHT22;20725;51.196;3.510;2022-12-18T08:05:59;-5.30;99.90
15666;DHT22;20725;51.196;3.510;2022-12-18T08:08:28;-5.30;99.90
15666;DHT22;20725;51.196;3.510;2022-12-18T08:11:01;-5.10;99.90
15666;DHT22;20725;51.196;3.510;2022-12-18T08:13:36;-5.10;99.90
15666;DHT22;20725;51.196;3.510;2022-12-18T08:16:07;-5.00;99.90
15666;DHT22;20725;51.196;3.510;2022-12-18T08:18:35;-4.90;99.90
15666;DHT22;20725;51.196;3.510;2022-12-18T08:21:09;-4.80;99.90
15666;DHT22;20725;51.196;3.510;2022-12-18T08:23:37;-4.60;99.90
15666;DHT22;20725;51.196;3.510;2022-12-18T08:26:06;-4.40;99.90
15666;DHT22;20725;51.196;3.510;2022-12-18T08:28:34;-4.40;99.90
15666;DHT22;20725;51.196;3.510;2022-12-18T08:31:02;-4.30;99.90
15666;DHT22;20725;51.196;3.510;2022-12-18T08:33:29;-4.30;99.90
15666;DHT22;20725;51.196;3.510;2022-12-18T08:35:58;-4.30;99.90
15666;DHT22;20725;51.196;3.510;2022-12-18T08:38:27;-4.20;99.90
15666;DHT22;20725;51.196;3.510;2022-12-18T08:40:58;-4.30;99.90
15666;DHT22;20725;51.196;3.510;2022-12-18T08:43:28;-4.10;99.90
15666;DHT22;20725;51.196;3.510;2022-12-18T08:46:12;-4.10;99.80
15666;DHT22;20725;51.196;3.510;2022-12-18T08:48:40;-4.10;99.50
15666;DHT22;20725;51.196;3.510;2022-12-18T08:51:07;-4.00;99.30
15666;DHT22;20725;51.196;3.510;2022-12-18T08:53:38;-3.90;99.20
15666;DHT22;20725;51.196;3.510;2022-12-18T08:56:06;-3.90;99.20
15666;DHT22;20725;51.196;3.510;2022-12-18T08:58:36;-3.80;99.30
15666;DHT22;20725;51.196;3.510;2022-12-18T09:01:05;-3.80;98.70
15666;DHT22;20725;51.196;3.510;2022-12-18T09:03:33;-3.80;99.20
15666;DHT22;20725;51.196;3.510;2022-12-18T09:06:00;-3.80;98.90
15666;DHT22;20725;51.196;3.510;2022-12-18T09:08:28;-3.60;99.30
15666;DHT22;20725;51.196;3.510;2022-12-18T09:10:55;-3.70;98.70
15666;DHT22;20725;51.196;3.510;2022-12-18T09:13:23;-3.60;98.80
15666;DHT22;20725;51.196;3.510;2022-12-18T09:15:53;-3.60;98.40
15666;DHT22;20725;51.196;3.510;2022-12-18T09:18:23;-3.50;99.00
15666;DHT22;20725;51.196;3.510;2022-12-18T09:20:50;-3.40;98.50
15666;DHT22;20725;51.196;3.510;2022-12-18T09:23:18;-3.40;98.30
15666;DHT22;20725;51.196;3.510;2022-12-18T09:25:46;-3.20;98.50
15666;DHT22;20725;51.196;3.510;2022-12-18T09:28:17;-3.30;98.30
15666;DHT22;20725;51.196;3.510;2022-12-18T09:30:47;-3.30;98.10
15666;DHT22;20725;51.196;3.510;2022-12-18T09:33:16;-3.30;98.00
15666;DHT22;20725;51.196;3.510;2022-12-18T09:35:45;-3.10;97.60
15666;DHT22;20725;51.196;3.510;2022-12-18T09:38:16;-3.20;97.20
15666;DHT22;20725;51.196;3.510;2022-12-18T09:40:44;-3.00;97.40
15666;DHT22;20725;51.196;3.510;2022-12-18T09:43:15;-3.00;97.50
15666;DHT22;20725;51.196;3.510;2022-12-18T09:45:46;-2.90;97.40
15666;DHT22;20725;51.196;3.510;2022-12-18T09:48:19;-2.80;97.40
15666;DHT22;20725;51.196;3.510;2022-12-18T09:50:48;-2.70;97.00
15666;DHT22;20725;51.196;3.510;2022-12-18T09:53:21;-2.60;96.80
15666;DHT22;20725;51.196;3.510;2022-12-18T09:55:51;-2.50;97.00
15666;DHT22;20725;51.196;3.510;2022-12-18T09:58:26;-2.50;96.00
15666;DHT22;20725;51.196;3.510;2022-12-18T10:00:55;-2.50;95.90
15666;DHT22;20725;51.196;3.510;2022-12-18T10:03:24;-2.40;95.40
15666;DHT22;20725;51.196;3.510;2022-12-18T10:05:59;-2.40;95.50
15666;DHT22;20725;51.196;3.510;2022-12-18T10:08:36;-2.40;95.30
15666;DHT22;20725;51.196;3.510;2022-12-18T10:11:23;-2.20;95.20
15666;DHT22;20725;51.196;3.510;2022-12-18T10:14:00;-2.20;95.40
15666;DHT22;20725;51.196;3.510;2022-12-18T10:16:36;-2.10;95.10
15666;DHT22;20725;51.196;3.510;2022-12-18T10:19:21;-2.00;94.70
15666;DHT22;20725;51.196;3.510;2022-12-18T10:21:58;-2.20;94.70
15666;DHT22;20725;51.196;3.510;2022-12-18T10:24:33;-2.20;94.40
15666;DHT22;20725;51.196;3.510;2022-12-18T10:27:14;-2.00;94.60
15666;DHT22;20725;51.196;3.510;2022-12-18T10:29:42;-2.00;93.90
15666;DHT22;20725;51.196;3.510;2022-12-18T10:32:15;-2.10;94.80
15666;DHT22;20725;51.196;3.510;2022-12-18T10:34:49;-2.00;93.40
15666;DHT22;20725;51.196;3.510;2022-12-18T10:37:18;-1.90;93.90
15666;DHT22;20725;51.196;3.510;2022-12-18T10:39:46;-2.00;94.10
15666;DHT22;20725;51.196;3.510;2022-12-18T10:42:17;-2.10;93.50
15666;DHT22;20725;51.196;3.510;2022-12-18T10:44:45;-2.00;93.90
15666;DHT22;20725;51.196;3.510;2022-12-18T10:47:15;-2.10;93.60
15666;DHT22;20725;51.196;3.510;2022-12-18T10:49:49;-2.10;93.90
15666;DHT22;20725;51.196;3.510;2022-12-18T10:52:19;-2.00;93.70
15666;DHT22;20725;51.196;3.510;2022-12-18T10:54:49;-2.00;94.00
15666;DHT22;20725;51.196;3.510;2022-12-18T10:57:32;-2.00;94.10
15666;DHT22;20725;51.196;3.510;2022-12-18T11:00:18;-2.00;94.00
15666;DHT22;20725;51.196;3.510;2022-12-18T11:02:47;-1.90;94.00
15666;DHT22;20725;51.196;3.510;2022-12-18T11:05:28;-1.80;93.90
15666;DHT22;20725;51.196;3.510;2022-12-18T11:07:56;-2.10;93.80
15666;DHT22;20725;51.196;3.510;2022-12-18T11:10:28;-2.00;94.20
15666;DHT22;20725;51.196;3.510;2022-12-18T11:13:15;-2.00;94.00
15666;DHT22;20725;51.196;3.510;2022-12-18T11:15:46;-2.00;94.30
15666;DHT22;20725;51.196;3.510;2022-12-18T11:18:19;-2.00;94.00
15666;DHT22;20725;51.196;3.510;2022-12-18T11:20:53;-1.90;94.00
15666;DHT22;20725;51.196;3.510;2022-12-18T11:23:21;-1.80;94.10
15666;DHT22;20725;51.196;3.510;2022-12-18T11:25:55;-1.80;94.30
15666;DHT22;20725;51.196;3.510;2022-12-18T11:28:45;-2.00;94.00
15666;DHT22;20725;51.196;3.510;2022-12-18T11:31:24;-1.90;94.20
15666;DHT22;20725;51.196;3.510;2022-12-18T11:34:01;-1.80;93.70
15666;DHT22;20725;51.196;3.510;2022-12-18T11:36:34;-1.80;94.20
15666;DHT22;20725;51.196;3.510;2022-12-18T11:39:15;-1.70;94.00
15666;DHT22;20725;51.196;3.510;2022-12-18T11:41:50;-1.70;94.00
15666;DHT22;20725;51.196;3.510;2022-12-18T11:44:42;-1.60;93.90
15666;DHT22;20725;51.196;3.510;2022-12-18T11:47:16;-1.70;94.10
15666;DHT22;20725;51.196;3.510;2022-12-18T11:49:49;-1.50;94.50
15666;DHT22;20725;51.196;3.510;2022-12-18T11:52:22;-1.50;93.60
15666;DHT22;20725;51.196;3.510;2022-12-18T11:54:56;-1.30;94.20
15666;DHT22;20725;51.196;3.510;2022-12-18T11:57:33;-1.50;93.80
15666;DHT22;20725;51.196;3.510;2022-12-18T12:00:09;-1.40;94.20
15666;DHT22;20725;51.196;3.510;2022-12-18T12:05:36;-1.20;94.10
15666;DHT22;20725;51.196;3.510;2022-12-18T12:08:12;-1.30;93.70
15666;DHT22;20725;51.196;3.510;2022-12-18T12:10:53;-1.20;93.80
15666;DHT22;20725;51.196;3.510;2022-12-18T12:13:32;-1.10;93.90
15666;DHT22;20725;51.196;3.510;2022-12-18T12:16:09;-1.00;93.80
15666;DHT22;20725;51.196;3.510;2022-12-18T12:18:47;-0.90;93.80
15666;DHT22;20725;51.196;3.510;2022-12-18T12:21:23;-1.00;93.60
15666;DHT22;20725;51.196;3.510;2022-12-18T12:24:00;-0.80;93.80
15666;DHT22;20725;51.196;3.510;2022-12-18T12:26:35;-0.80;93.50
15666;DHT22;20725;51.196;3.510;2022-12-18T12:29:23;-0.70;93.30
15666;DHT22;20725;51.196;3.510;2022-12-18T12:32:04;-0.70;92.90
15666;DHT22;20725;51.196;3.510;2022-12-18T12:34:38;-0.70;93.20
15666;DHT22;20725;51.196;3.510;2022-12-18T12:37:21;-0.80;93.10
15666;DHT22;20725;51.196;3.510;2022-12-18T12:39:52;-0.70;93.30
15666;DHT22;20725;51.196;3.510;2022-12-18T12:42:23;-0.70;92.90
15666;DHT22;20725;51.196;3.510;2022-12-18T12:45:21;-0.70;93.00
15666;DHT22;20725;51.196;3.510;2022-12-18T12:47:54;-0.70;93.00
15666;DHT22;20725;51.196;3.510;2022-12-18T12:50:22;-0.60;93.10
15666;DHT22;20725;51.196;3.510;2022-12-18T12:52:53;-0.70;93.30
15666;DHT22;20725;51.196;3.510;2022-12-18T12:55:25;-0.70;93.60
15666;DHT22;20725;51.196;3.510;2022-12-18T12:57:59;-0.60;93.50
15666;DHT22;20725;51.196;3.510;2022-12-18T13:00:36;-0.50;93.70
15666;DHT22;20725;51.196;3.510;2022-12-18T13:03:12;-0.40;93.10
15666;DHT22;20725;51.196;3.510;2022-12-18T13:05:45;-0.40;93.20
15666;DHT22;20725;51.196;3.510;2022-12-18T13:08:23;-0.50;93.40
15666;DHT22;20725;51.196;3.510;2022-12-18T13:10:53;-0.40;93.50
15666;DHT22;20725;51.196;3.510;2022-12-18T13:13:54;-0.60;92.80
15666;DHT22;20725;51.196;3.510;2022-12-18T13:16:22;-0.60;92.40
15666;DHT22;20725;51.196;3.510;2022-12-18T13:18:51;-0.60;92.90
15666;DHT22;20725;51.196;3.510;2022-12-18T13:21:24;-0.50;93.10
15666;DHT22;20725;51.196;3.510;2022-12-18T13:23:53;-0.60;93.20
15666;DHT22;20725;51.196;3.510;2022-12-18T13:26:32;-0.70;93.10
15666;DHT22;20725;51.196;3.510;2022-12-18T13:29:03;-0.60;93.10
15666;DHT22;20725;51.196;3.510;2022-12-18T13:34:37;-0.60;93.10
15666;DHT22;20725;51.196;3.510;2022-12-18T13:43:34;-0.60;93.70
15666;DHT22;20725;51.196;3.510;2022-12-18T13:46:18;-0.60;93.30
15666;DHT22;20725;51.196;3.510;2022-12-18T13:49:00;-0.60;93.40
15666;DHT22;20725;51.196;3.510;2022-12-18T13:51:29;-0.50;93.50
15666;DHT22;20725;51.196;3.510;2022-12-18T13:54:06;-0.60;92.90
15666;DHT22;20725;51.196;3.510;2022-12-18T13:56:43;-0.60;93.30
15666;DHT22;20725;51.196;3.510;2022-12-18T13:59:23;-0.40;93.20
15666;DHT22;20725;51.196;3.510;2022-12-18T14:01:53;-0.60;92.80
15666;DHT22;20725;51.196;3.510;2022-12-18T14:04:27;-0.50;92.70
15666;DHT22;20725;51.196;3.510;2022-12-18T14:07:00;-0.50;92.60
15666;DHT22;20725;51.196;3.510;2022-12-18T14:09:30;-0.50;93.00
15666;DHT22;20725;51.196;3.510;2022-12-18T14:11:58;-0.50;92.90
15666;DHT22;20725;51.196;3.510;2022-12-18T14:14:44;-0.50;93.70
15666;DHT22;20725;51.196;3.510;2022-12-18T14:17:13;-0.60;93.60
15666;DHT22;20725;51.196;3.510;2022-12-18T14:19:45;-0.70;93.00
15666;DHT22;20725;51.196;3.510;2022-12-18T14:22:18;-0.70;93.00
15666;DHT22;20725;51.196;3.510;2022-12-18T14:24:46;-0.70;93.10
15666;DHT22;20725;51.196;3.510;2022-12-18T14:27:22;-0.60;93.00
15666;DHT22;20725;51.196;3.510;2022-12-18T14:29:51;-0.70;93.10
15666;DHT22;20725;51.196;3.510;2022-12-18T14:32:21;-0.70;92.70
15666;DHT22;20725;51.196;3.510;2022-12-18T14:34:50;-0.80;93.10
15666;DHT22;20725;51.196;3.510;2022-12-18T14:37:22;-0.70;93.10
15666;DHT22;20725;51.196;3.510;2022-12-18T14:39:57;-0.60;93.00
15666;DHT22;20725;51.196;3.510;2022-12-18T14:42:26;-0.60;93.50
15666;DHT22;20725;51.196;3.510;2022-12-18T14:48:00;-0.60;93.50
15666;DHT22;20725;51.196;3.510;2022-12-18T14:50:32;-0.60;93.50
15666;DHT22;20725;51.196;3.510;2022-12-18T14:53:00;-0.60;93.10
15666;DHT22;20725;51.196;3.510;2022-12-18T14:55:27;-0.70;93.00
15666;DHT22;20725;51.196;3.510;2022-12-18T14:57:55;-0.70;93.30
15666;DHT22;20725;51.196;3.510;2022-12-18T15:00:25;-0.70;93.50
15666;DHT22;20725;51.196;3.510;2022-12-18T15:02:54;-0.70;93.20
15666;DHT22;20725;51.196;3.510;2022-12-18T15:05:30;-0.50;93.30
15666;DHT22;20725;51.196;3.510;2022-12-18T15:08:29;-0.60;93.20
15666;DHT22;20725;51.196;3.510;2022-12-18T15:11:00;-0.50;93.40
15666;DHT22;20725;51.196;3.510;2022-12-18T15:16:51;-0.60;93.60
15666;DHT22;20725;51.196;3.510;2022-12-18T15:19:28;-0.60;93.80
15666;DHT22;20725;51.196;3.510;2022-12-18T15:22:18;-0.60;93.10
15666;DHT22;20725;51.196;3.510;2022-12-18T15:24:50;-0.50;93.50
15666;DHT22;20725;51.196;3.510;2022-12-18T15:27:25;-0.60;93.50
15666;DHT22;20725;51.196;3.510;2022-12-18T15:30:21;-0.60;93.80
15666;DHT22;20725;51.196;3.510;2022-12-18T15:32:50;-0.60;94.10
15666;DHT22;20725;51.196;3.510;2022-12-18T15:35:20;-0.60;94.00
15666;DHT22;20725;51.196;3.510;2022-12-18T15:37:50;-0.50;94.00
15666;DHT22;20725;51.196;3.510;2022-12-18T15:40:20;-0.50;93.80
15666;DHT22;20725;51.196;3.510;2022-12-18T15:42:50;-0.50;93.70
15666;DHT22;20725;51.196;3.510;2022-12-18T15:45:35;-0.60;93.80
15666;DHT22;20725;51.196;3.510;2022-12-18T15:48:10;-0.60;93.60
15666;DHT22;20725;51.196;3.510;2022-12-18T15:50:41;-0.60;93.70
15666;DHT22;20725;51.196;3.510;2022-12-18T15:53:12;-0.60;93.80
15666;DHT22;20725;51.196;3.510;2022-12-18T15:55:39;-0.50;93.90
15666;DHT22;20725;51.196;3.510;2022-12-18T15:58:23;-0.50;93.90
15666;DHT22;20725;51.196;3.510;2022-12-18T16:00:58;-0.40;94.00
15666;DHT22;20725;51.196;3.510;2022-12-18T16:03:29;-0.40;93.80
15666;DHT22;20725;51.196;3.510;2022-12-18T16:05:56;-0.50;93.80
15666;DHT22;20725;51.196;3.510;2022-12-18T16:08:27;-0.50;94.20
15666;DHT22;20725;51.196;3.510;2022-12-18T16:10:54;-0.50;94.20
15666;DHT22;20725;51.196;3.510;2022-12-18T16:13:23;-0.40;94.20